Time;durP1;ratioP1;P1;durP2;ratioP2;P2;SDS_P1;SDS_P2;PMS_P1;PMS_P2;Temp;Humidity;BMP_temperature;BMP_pressure;BME280_temperature;BME280_humidity;BME280_pressure;Samples;Min_cycle;Max_cycle;Signal;HPM_P1;HPM_P2
2022/09/07 00:01:04;;;;;;;14.65;3.53;;;;;;;19.05;56.67;101237.84;5054439;28;20021;-81
2022/09/07 00:03:30;;;;;;;9.00;3.08;;;;;;;19.02;56.72;101243.63;5054367;28;20545;-81
2022/09/07 00:05:56;;;;;;;10.18;3.60;;;;;;;19.03;56.60;101243.50;5054373;28;20059;-82
2022/09/07 00:08:24;;;;;;;7.90;3.50;;;;;;;18.93;56.88;101233.72;5053055;28;20055;-82
2022/09/07 00:10:55;;;;;;;13.65;4.38;;;;;;;18.86;57.21;101232.69;5054879;28;20017;-81
2022/09/07 00:13:22;;;;;;;7.20;3.70;;;;;;;18.80;57.18;101225.16;5053882;28;20047;-82
2022/09/07 00:15:48;;;;;;;8.40;3.17;;;;;;;18.78;57.49;101238.09;5054372;28;20332;-81
2022/09/07 00:18:13;;;;;;;7.60;3.42;;;;;;;18.66;57.77;101231.22;5052856;28;20020;-82
2022/09/07 00:20:39;;;;;;;7.97;3.28;;;;;;;18.71;57.71;101239.78;5053965;28;20394;-81
2022/09/07 00:23:04;;;;;;;19.88;5.43;;;;;;;18.74;57.64;101244.91;5054191;28;20418;-81
2022/09/07 00:25:30;;;;;;;4.35;3.50;;;;;;;18.74;57.52;101239.44;5054071;28;20021;-81
2022/09/07 00:27:55;;;;;;;6.80;3.42;;;;;;;18.72;57.43;101228.69;5054087;28;20145;-82
2022/09/07 00:30:21;;;;;;;5.20;3.45;;;;;;;18.68;57.62;101232.78;5052415;28;20760;-81
2022/09/07 00:32:46;;;;;;;12.75;3.45;;;;;;;18.65;57.68;101226.78;5054013;28;20037;-81
2022/09/07 00:35:11;;;;;;;7.43;3.25;;;;;;;18.56;57.71;101227.78;5053856;28;20028;-82
2022/09/07 00:37:37;;;;;;;4.63;2.90;;;;;;;18.58;58.01;101228.44;5053793;28;20091;-81
2022/09/07 00:40:04;;;;;;;6.72;3.22;;;;;;;18.54;58.04;101235.22;5053775;28;20024;-81
2022/09/07 00:42:29;;;;;;;5.70;3.38;;;;;;;18.35;58.32;101204.44;5053927;28;20024;-82
2022/09/07 00:45:22;;;;;;;11.70;3.75;;;;;;;18.51;58.38;101232.81;5053550;28;20032;-82
2022/09/07 00:48:09;;;;;;;9.30;4.00;;;;;;;18.51;58.24;101230.09;5053681;28;20035;-82
2022/09/07 00:50:43;;;;;;;13.63;5.03;;;;;;;18.51;58.28;101227.38;5053745;28;20100;-81
2022/09/07 00:53:31;;;;;;;6.95;3.28;;;;;;;18.38;58.84;101217.75;5053249;28;20116;-81
2022/09/07 00:55:58;;;;;;;7.20;3.08;;;;;;;18.48;58.42;101220.34;5053596;28;20110;-81
2022/09/07 00:58:24;;;;;;;11.82;3.50;;;;;;;18.37;58.45;101205.16;5052679;28;20110;-81
2022/09/07 01:00:50;;;;;;;7.75;3.15;;;;;;;18.32;58.84;101220.25;5052612;28;20032;-81
2022/09/07 01:03:29;;;;;;;11.27;3.20;;;;;;;18.22;59.42;101228.53;5053337;28;20029;-81
2022/09/07 01:06:01;;;;;;;12.10;3.45;;;;;;;18.14;59.95;101231.19;5053309;28;20029;-81
2022/09/07 01:08:27;;;;;;;5.13;3.33;;;;;;;18.10;59.74;101210.75;5053167;28;20048;-81
2022/09/07 01:10:54;;;;;;;7.43;3.60;;;;;;;18.10;60.14;101218.06;5052271;28;20032;-82
2022/09/07 01:13:19;;;;;;;7.10;3.13;;;;;;;18.21;60.00;101226.84;5052482;28;20060;-81
2022/09/07 01:15:54;;;;;;;3.67;2.95;;;;;;;18.34;59.76;101230.00;5053114;28;20021;-82
2022/09/07 01:18:19;;;;;;;10.50;4.10;;;;;;;18.42;59.54;101230.03;5053323;28;20103;-81
2022/09/07 01:21:02;;;;;;;8.20;3.53;;;;;;;18.46;59.25;101219.69;5052984;28;20114;-81
2022/09/07 01:24:02;;;;;;;7.28;2.97;;;;;;;18.42;59.41;101230.03;5050829;28;20021;-81
2022/09/07 01:27:05;;;;;;;8.48;4.32;;;;;;;18.47;59.49;101224.94;5044684;28;20479;-82
2022/09/07 01:29:41;;;;;;;20.20;7.53;;;;;;;18.44;59.41;101217.09;5011095;28;20356;-82
2022/09/07 01:32:25;;;;;;;9.50;6.13;;;;;;;18.52;59.23;101231.81;5041064;28;20532;-82
2022/09/07 01:34:52;;;;;;;9.35;5.53;;;;;;;18.46;59.25;101231.44;5052714;28;20071;-83
2022/09/07 01:37:23;;;;;;;8.15;4.55;;;;;;;18.42;59.72;101224.59;5052622;28;20052;-82
2022/09/07 01:40:12;;;;;;;6.90;4.10;;;;;;;18.45;59.47;101216.09;5051656;28;20024;-81
2022/09/07 01:42:52;;;;;;;11.43;3.70;;;;;;;18.39;59.49;101211.28;5052877;28;20021;-82
2022/09/07 01:45:21;;;;;;;6.60;4.00;;;;;;;18.44;59.29;101214.38;5052610;28;20017;-81
2022/09/07 01:47:51;;;;;;;6.93;3.83;;;;;;;18.50;59.23;101220.25;5052409;28;20025;-81
2022/09/07 01:50:27;;;;;;;6.80;3.53;;;;;;;18.53;59.09;101214.47;5052487;28;20025;-80
2022/09/07 01:53:00;;;;;;;8.38;3.70;;;;;;;18.45;59.17;101196.16;5052335;28;20086;-81
2022/09/07 01:55:55;;;;;;;7.07;3.75;;;;;;;18.54;59.27;101221.59;5052374;28;20029;-80
2022/09/07 01:58:50;;;;;;;17.13;4.63;;;;;;;18.47;59.60;101222.22;5048940;28;20052;-81
2022/09/07 02:01:27;;;;;;;16.80;4.68;;;;;;;18.47;59.67;101227.66;5051085;28;20445;-81
2022/09/07 02:04:14;;;;;;;10.27;4.22;;;;;;;18.40;59.76;101218.44;5052138;28;20021;-81
2022/09/07 02:07:09;;;;;;;9.38;5.03;;;;;;;18.49;59.60;101216.66;5052167;28;20479;-81
2022/09/07 02:09:41;;;;;;;9.00;5.28;;;;;;;18.55;59.25;101220.59;5015330;28;20038;-80
2022/09/07 02:12:24;;;;;;;11.48;4.43;;;;;;;18.43;59.30;101212.69;5052448;28;20053;-81
2022/09/07 02:15:01;;;;;;;9.82;4.43;;;;;;;18.38;59.56;101206.84;5052192;28;20058;-81
2022/09/07 02:17:38;;;;;;;7.65;4.40;;;;;;;18.27;59.96;101207.13;5051968;28;20036;-81
2022/09/07 02:20:15;;;;;;;18.15;5.43;;;;;;;18.32;60.01;101203.91;5052284;28;20063;-81
2022/09/07 02:22:46;;;;;;;9.48;5.22;;;;;;;18.24;60.02;101212.91;5052424;28;20032;-80
2022/09/07 02:25:18;;;;;;;11.55;5.68;;;;;;;18.19;60.26;101212.53;5052163;28;20021;-82
2022/09/07 02:27:46;;;;;;;;;;;;;;;18.10;60.57;101210.75;5052675;28;20036;-82
2022/09/07 02:30:12;;;;;;;12.85;5.97;;;;;;;17.98;60.95;101203.00;5052107;28;19908;-84
2022/09/07 02:32:37;;;;;;;17.35;5.63;;;;;;;17.98;60.90;101209.28;5049725;28;20490;-83
2022/09/07 02:35:04;;;;;;;18.08;5.68;;;;;;;17.87;61.58;101206.81;5052253;28;20106;-83
2022/09/07 02:37:31;;;;;;;11.80;4.80;;;;;;;17.85;61.44;101198.84;5050916;28;20029;-82
2022/09/07 02:39:56;;;;;;;9.95;4.93;;;;;;;18.00;61.14;101212.72;5052293;28;20033;-83
2022/09/07 02:42:22;;;;;;;10.85;4.20;;;;;;;18.04;61.00;101214.09;5052359;28;20545;-82
2022/09/07 02:44:48;;;;;;;9.80;4.10;;;;;;;18.04;60.98;101210.53;5052423;28;20028;-81
2022/09/07 02:47:29;;;;;;;8.02;4.72;;;;;;;17.96;61.07;101211.31;5052312;28;20025;-82
2022/09/07 02:50:20;;;;;;;8.82;3.80;;;;;;;17.83;61.20;101199.97;5052085;28;20049;-82
2022/09/07 02:53:01;;;;;;;9.48;4.18;;;;;;;17.94;61.12;101205.19;5051911;28;20406;-82
2022/09/07 02:55:44;;;;;;;17.50;3.38;;;;;;;17.88;61.30;101197.66;5052020;28;20032;-82
2022/09/07 02:58:23;;;;;;;8.45;4.00;;;;;;;17.95;60.97;101205.00;5052068;28;20021;-82
2022/09/07 03:01:09;;;;;;;7.65;3.40;;;;;;;18.01;60.81;101219.03;5050818;28;20036;-81
2022/09/07 03:03:53;;;;;;;9.55;3.97;;;;;;;18.00;60.69;101207.28;5051952;28;20025;-81
2022/09/07 03:06:27;;;;;;;13.95;4.13;;;;;;;17.89;61.08;101210.22;5051914;28;20025;-81
2022/09/07 03:08:57;;;;;;;8.35;4.75;;;;;;;17.78;61.40;101205.03;5051754;28;20032;-82
2022/09/07 03:11:23;;;;;;;13.90;5.22;;;;;;;17.77;61.73;101208.78;5051747;28;20354;-79
2022/09/07 03:13:48;;;;;;;18.95;5.45;;;;;;;17.78;61.71;101213.22;5048761;28;20368;-79
2022/09/07 03:16:14;;;;;;;18.35;5.60;;;;;;;17.74;61.56;101219.97;5050675;28;20021;-79
2022/09/07 03:18:42;;;;;;;14.43;6.10;;;;;;;17.62;61.96;101205.75;5049927;28;20086;-79
2022/09/07 03:21:08;;;;;;;20.55;6.50;;;;;;;17.52;62.17;101199.50;5051584;28;20025;-79
2022/09/07 03:23:34;;;;;;;14.27;6.00;;;;;;;17.57;62.28;101215.41;5054113;28;20045;-79
2022/09/07 03:26:00;;;;;;;20.70;6.95;;;;;;;17.56;62.45;101219.97;5054078;28;20017;-79
2022/09/07 03:28:25;;;;;;;21.70;7.22;;;;;;;17.57;62.29;101216.25;5054254;28;20025;-79
2022/09/07 03:30:50;;;;;;;27.63;8.00;;;;;;;17.59;62.09;101218.81;5053661;28;20079;-79
2022/09/07 03:33:16;;;;;;;14.13;6.00;;;;;;;17.68;62.08;101221.44;5051776;28;20025;-79
2022/09/07 03:35:42;;;;;;;18.65;6.75;;;;;;;17.68;61.93;101218.72;5054334;28;20471;-80
2022/09/07 03:38:08;;;;;;;21.38;7.00;;;;;;;17.60;62.16;101220.53;5054347;28;20074;-79
2022/09/07 03:40:33;;;;;;;29.40;7.93;;;;;;;17.57;62.20;101220.84;5054426;28;20021;-78
2022/09/07 03:42:59;;;;;;;17.55;6.15;;;;;;;17.66;62.29;101236.22;5054156;28;20082;-79
2022/09/07 03:45:24;;;;;;;11.13;5.50;;;;;;;17.63;62.44;101231.09;5054124;28;20100;-79
2022/09/07 03:47:50;;;;;;;24.27;6.28;;;;;;;17.67;62.38;101227.06;5054181;28;20052;-79
2022/09/07 03:50:15;;;;;;;35.75;6.80;;;;;;;17.61;62.68;101227.69;5054187;28;20036;-80
2022/09/07 03:52:41;;;;;;;22.77;6.75;;;;;;;17.62;62.55;101234.81;5054071;28;20028;-80
2022/09/07 03:55:07;;;;;;;27.63;7.07;;;;;;;17.53;62.55;101239.28;5053543;28;20040;-80
2022/09/07 03:57:33;;;;;;;20.38;7.65;;;;;;;17.49;62.50;101221.56;5053430;28;20486;-80
2022/09/07 03:59:58;;;;;;;18.55;7.97;;;;;;;17.63;62.56;101236.53;5052299;28;20025;-79
2022/09/07 04:02:24;;;;;;;21.63;8.48;;;;;;;17.60;62.29;101225.97;5057397;28;20036;-80
2022/09/07 04:04:49;;;;;;;23.58;7.05;;;;;;;17.77;62.26;101227.81;5055953;28;20017;-79
2022/09/07 04:07:14;;;;;;;59.97;11.50;;;;;;;17.79;61.96;101243.00;5053839;28;20021;-79
2022/09/07 04:09:40;;;;;;;18.13;6.13;;;;;;;17.76;62.16;101224.25;5053393;28;20450;-80
2022/09/07 04:12:07;;;;;;;21.05;6.45;;;;;;;17.90;62.01;101239.16;5053790;28;20035;-80
2022/09/07 04:14:33;;;;;;;13.05;6.43;;;;;;;17.90;62.01;101229.13;5054331;28;20068;-84
2022/09/07 04:16:59;;;;;;;16.40;6.07;;;;;;;17.94;62.07;101236.00;5054588;28;20499;-84
2022/09/07 04:19:24;;;;;;;13.88;5.65;;;;;;;17.95;61.87;101244.97;5054119;28;20394;-82
2022/09/07 04:21:50;;;;;;;22.48;6.13;;;;;;;17.94;61.92;101236.00;5052609;28;20398;-82
2022/09/07 04:24:16;;;;;;;51.90;7.25;;;;;;;18.03;62.12;101250.50;5054465;28;20024;-83
2022/09/07 04:26:43;;;;;;;25.90;7.07;;;;;;;18.02;61.83;101251.50;5053266;28;20032;-81
2022/09/07 04:29:10;;;;;;;40.00;8.07;;;;;;;17.98;62.10;101258.28;5054941;28;20028;-80
2022/09/07 04:31:36;;;;;;;30.60;7.45;;;;;;;18.06;62.06;101257.50;5053313;28;20481;-81
2022/09/07 04:34:02;;;;;;;30.15;6.60;;;;;;;18.11;61.71;101258.72;5054380;28;20116;-81
2022/09/07 04:36:28;;;;;;;40.13;8.32;;;;;;;18.06;61.51;101249.34;5055365;28;20489;-81
2022/09/07 04:38:56;;;;;;;27.30;8.63;;;;;;;18.13;61.46;101250.44;5053975;28;20021;-82
2022/09/07 04:41:22;;;;;;;31.45;8.45;;;;;;;18.29;61.20;101265.00;5053810;28;20028;-83
2022/09/07 04:43:52;;;;;;;84.25;15.32;;;;;;;18.33;60.98;101247.34;5053511;28;20114;-83
2022/09/07 04:46:28;;;;;;;57.63;10.63;;;;;;;18.27;61.19;101258.88;5055043;28;20040;-85
2022/09/07 04:48:59;;;;;;;30.90;9.60;;;;;;;18.18;61.43;101250.78;5054347;28;20026;-82
2022/09/07 04:51:27;;;;;;;39.78;8.90;;;;;;;18.26;61.52;101262.59;5052627;28;20017;-79
2022/09/07 04:53:54;;;;;;;35.63;10.60;;;;;;;18.28;61.64;101257.88;5050880;28;20013;-79
2022/09/07 04:56:21;;;;;;;55.75;10.50;;;;;;;18.29;61.36;101245.06;5051841;28;20025;-85
2022/09/07 04:58:47;;;;;;;45.00;11.00;;;;;;;18.32;61.44;101245.63;5051435;28;20032;-88
2022/09/07 05:01:16;;;;;;;30.58;10.10;;;;;;;18.45;61.38;101267.00;5052400;28;20021;-83
2022/09/07 05:03:42;;;;;;;37.20;11.07;;;;;;;18.45;61.40;101262.41;5056152;28;20032;-82
2022/09/07 05:06:08;;;;;;;23.08;9.10;;;;;;;18.48;60.83;101264.81;5053534;28;20056;-84
2022/09/07 05:08:41;;;;;;;25.42;11.02;;;;;;;18.52;60.92;101265.38;5053062;28;20055;-83
2022/09/07 05:11:08;;;;;;;41.92;11.82;;;;;;;18.62;60.96;101273.44;5053108;28;20051;-82
2022/09/07 05:13:34;;;;;;;35.35;14.18;;;;;;;18.62;60.88;101259.81;5052606;28;20048;-83
2022/09/07 05:16:06;;;;;;;50.80;16.23;;;;;;;18.76;60.58;101270.09;5053191;28;20551;-84
2022/09/07 05:18:32;;;;;;;40.28;22.60;;;;;;;18.89;60.19;101271.38;5053327;28;20439;-83
2022/09/07 05:21:16;;;;;;;50.05;32.70;;;;;;;19.03;59.75;101283.53;5053042;28;20116;-85
2022/09/07 05:23:43;;;;;;;63.65;33.92;;;;;;;18.93;59.53;101260.97;5052787;28;20025;-85
2022/09/07 05:26:10;;;;;;;61.53;35.38;;;;;;;19.17;59.57;101273.88;5052738;28;20395;-81
2022/09/07 05:28:36;;;;;;;61.75;34.53;;;;;;;19.22;59.40;101269.66;5052559;28;20032;-79
2022/09/07 05:31:06;;;;;;;88.82;41.38;;;;;;;19.34;58.87;101275.63;5052365;28;20037;-84
2022/09/07 05:33:32;;;;;;;75.45;42.88;;;;;;;19.44;59.02;101281.84;5052407;28;20032;-80
2022/09/07 05:35:59;;;;;;;120.25;67.00;;;;;;;19.60;58.68;101281.03;5052889;28;20036;-84
2022/09/07 05:38:24;;;;;;;90.57;61.78;;;;;;;19.71;58.14;101278.84;5052746;28;20048;-82
2022/09/07 05:40:50;;;;;;;100.32;60.47;;;;;;;19.81;57.88;101274.09;5052714;28;20398;-83
2022/09/07 05:43:16;;;;;;;83.95;52.83;;;;;;;19.89;57.68;101281.41;5052423;28;20029;-83
2022/09/07 05:45:42;;;;;;;85.82;46.65;;;;;;;19.90;57.43;101273.06;5052336;28;20162;-86
2022/09/07 05:48:07;;;;;;;91.18;43.65;;;;;;;20.00;56.93;101275.63;5052835;28;20036;-82
2022/09/07 05:50:34;;;;;;;84.05;40.55;;;;;;;20.05;56.76;101275.97;5052262;28;20036;-81
2022/09/07 05:53:00;;;;;;;57.95;36.15;;;;;;;20.11;56.64;101267.09;5052157;28;20067;-80
2022/09/07 05:55:26;;;;;;;61.38;33.33;;;;;;;20.14;56.74;101271.38;5050614;28;20031;-82
2022/09/07 05:57:52;;;;;;;81.75;35.42;;;;;;;20.23;56.63;101273.94;5052074;28;20118;-82
2022/09/07 06:00:20;;;;;;;65.68;36.03;;;;;;;20.24;56.72;101270.19;5052029;28;20029;-81
2022/09/07 06:02:46;;;;;;;76.53;34.38;;;;;;;20.38;56.57;101276.84;5050618;28;20028;-81
2022/09/07 06:05:12;;;;;;;93.47;33.28;;;;;;;20.44;56.42;101271.53;5052140;28;20203;-82
2022/09/07 06:07:37;;;;;;;190.07;41.97;;;;;;;20.52;56.19;101279.72;5051751;28;20107;-81
2022/09/07 06:10:04;;;;;;;57.80;31.23;;;;;;;20.61;55.71;101278.69;5051936;28;20033;-83
2022/09/07 06:12:30;;;;;;;73.78;29.85;;;;;;;20.68;55.78;101276.09;5051631;28;20483;-80
2022/09/07 06:14:55;;;;;;;87.05;31.25;;;;;;;20.86;55.47;101275.88;5051226;28;20053;-82
2022/09/07 06:17:20;;;;;;;73.13;29.05;;;;;;;20.95;55.36;101272.09;5051338;28;20033;-82
2022/09/07 06:19:46;;;;;;;41.30;24.05;;;;;;;21.09;54.96;101276.88;5051964;28;20032;-81
2022/09/07 06:22:12;;;;;;;59.88;26.42;;;;;;;21.27;54.87;101291.16;5051888;28;20029;-81
2022/09/07 06:24:37;;;;;;;58.65;22.08;;;;;;;21.33;54.43;101284.13;5051872;28;20398;-81
2022/09/07 06:27:03;;;;;;;92.05;22.38;;;;;;;21.41;54.23;101273.13;5051850;28;20506;-81
2022/09/07 06:29:29;;;;;;;78.18;22.60;;;;;;;21.62;54.16;101287.88;5050675;28;20021;-81
2022/09/07 06:31:54;;;;;;;40.92;15.23;;;;;;;21.73;54.07;101291.25;5051971;28;20036;-80
2022/09/07 06:34:19;;;;;;;33.78;11.60;;;;;;;21.84;54.31;101293.56;5051947;28;20398;-81
2022/09/07 06:36:45;;;;;;;20.67;10.63;;;;;;;21.92;54.33;101290.81;5052381;28;20099;-82
2022/09/07 06:39:10;;;;;;;30.45;11.93;;;;;;;22.05;54.48;101294.63;5051808;28;20027;-82
2022/09/07 06:41:36;;;;;;;39.05;11.20;;;;;;;22.07;54.20;101288.97;5051921;28;20485;-81
2022/09/07 06:44:02;;;;;;;14.70;6.85;;;;;;;22.17;54.92;101292.31;5050644;28;20078;-81
2022/09/07 06:46:27;;;;;;;30.38;11.30;;;;;;;22.20;53.95;101289.19;5051523;28;20039;-83
2022/09/07 06:48:53;;;;;;;12.35;5.57;;;;;;;22.19;55.42;101290.25;5050407;28;20021;-82
2022/09/07 06:51:21;;;;;;;15.93;5.68;;;;;;;22.31;55.52;101296.13;5051874;28;20475;-82
2022/09/07 06:53:47;;;;;;;16.83;5.78;;;;;;;22.41;55.51;101286.63;5051718;28;20032;-82
2022/09/07 06:56:15;;;;;;;12.57;4.63;;;;;;;22.50;55.24;101293.75;5052576;28;20116;-82
2022/09/07 06:58:41;;;;;;;11.45;4.75;;;;;;;22.63;54.58;101304.91;5055106;28;20033;-81
2022/09/07 07:01:13;;;;;;;18.27;5.22;;;;;;;22.70;54.68;101308.66;5055745;28;20474;-83
2022/09/07 07:03:38;;;;;;;12.20;4.38;;;;;;;22.70;54.01;101303.16;5054118;28;20095;-82
2022/09/07 07:06:05;;;;;;;14.07;5.00;;;;;;;22.67;52.91;101308.16;5055120;28;20475;-82
2022/09/07 07:08:30;;;;;;;43.53;7.32;;;;;;;22.80;53.02;101307.53;5055429;28;20031;-82
2022/09/07 07:11:02;;;;;;;13.52;4.32;;;;;;;22.88;52.41;101307.41;5055050;28;20103;-82
2022/09/07 07:13:27;;;;;;;9.07;4.73;;;;;;;22.81;52.59;101293.63;5054635;28;20123;-82
2022/09/07 07:16:01;;;;;;;6.93;4.07;;;;;;;22.63;52.38;101302.16;5054879;28;20550;-82
2022/09/07 07:18:26;;;;;;;8.73;4.55;;;;;;;22.68;52.83;101294.28;5053476;28;20390;-82
2022/09/07 07:20:52;;;;;;;16.45;5.38;;;;;;;22.89;52.37;101310.00;5055370;28;20112;-82
2022/09/07 07:23:18;;;;;;;14.35;5.28;;;;;;;22.85;52.17;101311.41;5054908;28;20021;-82
2022/09/07 07:25:44;;;;;;;15.35;4.45;;;;;;;22.81;51.73;101303.75;5055883;28;20013;-83
2022/09/07 07:28:09;;;;;;;11.38;5.07;;;;;;;22.75;51.79;101308.09;5055681;28;20650;-82
2022/09/07 07:30:34;;;;;;;13.18;5.53;;;;;;;22.86;51.67;101312.25;5055044;28;20028;-82
2022/09/07 07:33:00;;;;;;;8.05;5.15;;;;;;;22.81;51.82;101309.22;5055455;28;20493;-82
2022/09/07 07:35:25;;;;;;;22.50;5.68;;;;;;;22.75;52.54;101300.69;5054575;28;20146;-83
2022/09/07 07:37:54;;;;;;;8.95;4.85;;;;;;;22.69;52.01;101306.06;5054849;28;20025;-83
2022/09/07 07:40:20;;;;;;;12.88;4.85;;;;;;;22.76;52.33;101313.38;5054583;28;20031;-82
2022/09/07 07:42:45;;;;;;;8.60;4.70;;;;;;;22.95;52.12;101314.72;5054759;28;20037;-82
2022/09/07 07:45:12;;;;;;;8.20;5.07;;;;;;;22.93;51.87;101311.31;5054722;28;20081;-81
2022/09/07 07:47:37;;;;;;;11.45;5.90;;;;;;;22.97;51.80;101314.53;5054567;28;20020;-81
2022/09/07 07:50:04;;;;;;;6.22;4.38;;;;;;;22.87;52.08;101292.03;5053216;28;20029;-81
2022/09/07 07:52:35;;;;;;;13.50;4.60;;;;;;;23.15;51.57;101312.25;5054753;28;20029;-82
2022/09/07 07:55:01;;;;;;;11.65;5.20;;;;;;;23.18;51.44;101300.88;5054566;28;20021;-82
2022/09/07 07:57:27;;;;;;;19.67;5.65;;;;;;;23.19;50.78;101302.59;5054575;28;20040;-83
2022/09/07 07:59:52;;;;;;;10.10;4.78;;;;;;;23.15;50.86;101293.03;5054791;28;20459;-82
2022/09/07 08:02:18;;;;;;;15.93;5.47;;;;;;;23.23;51.04;101284.72;5055183;28;20029;-83
2022/09/07 08:04:44;;;;;;;16.52;6.60;;;;;;;23.21;51.22;101290.38;5052979;28;20021;-81
2022/09/07 08:07:13;;;;;;;13.07;5.15;;;;;;;23.00;51.40;101264.75;5054029;28;20079;-82
2022/09/07 08:09:40;;;;;;;14.52;5.47;;;;;;;23.20;51.75;101293.34;5054500;28;20024;-82
2022/09/07 08:12:05;;;;;;;15.10;5.85;;;;;;;23.29;51.76;101289.44;5054336;28;20397;-81
2022/09/07 08:14:31;;;;;;;12.25;5.55;;;;;;;23.20;51.21;101298.81;5053943;28;20044;-82
2022/09/07 08:16:56;;;;;;;11.02;5.07;;;;;;;23.24;51.93;101294.63;5054012;28;20466;-79
2022/09/07 08:19:22;;;;;;;13.00;5.40;;;;;;;23.34;52.38;101303.44;5053493;28;20478;-80
2022/09/07 08:21:47;;;;;;;10.48;6.30;;;;;;;23.41;52.55;101303.56;5053569;28;20122;-80
2022/09/07 08:24:12;;;;;;;18.80;7.50;;;;;;;23.53;52.56;101305.63;5052143;28;20052;-80
2022/09/07 08:26:38;;;;;;;11.10;5.90;;;;;;;23.65;52.39;101305.97;5053787;28;20024;-80
2022/09/07 08:29:03;;;;;;;14.63;6.40;;;;;;;23.60;51.97;101295.56;5053429;28;20023;-81
2022/09/07 08:31:29;;;;;;;16.85;7.38;;;;;;;23.71;52.11;101302.44;5054025;28;20027;-83
2022/09/07 08:33:54;;;;;;;16.92;6.90;;;;;;;23.77;52.55;101297.03;5053850;28;20021;-86
2022/09/07 08:36:20;;;;;;;16.42;5.47;;;;;;;23.89;51.86;101293.75;5053994;28;20107;-83
2022/09/07 08:38:46;;;;;;;19.63;5.63;;;;;;;23.97;50.69;101296.41;5054497;28;20091;-83
2022/09/07 08:41:50;;;;;;;11.10;4.43;;;;;;;23.83;50.68;101301.75;5053601;28;20032;-79
2022/09/07 08:44:29;;;;;;;15.75;5.70;;;;;;;23.80;51.42;101302.13;5037283;28;20095;-78
2022/09/07 08:47:22;;;;;;;8.30;5.20;;;;;;;23.89;50.28;101305.59;5052592;28;20052;-82
2022/09/07 08:49:53;;;;;;;35.00;6.70;;;;;;;23.98;50.43;101307.19;5052770;28;20104;-79
2022/09/07 08:52:31;;;;;;;9.43;4.45;;;;;;;24.11;49.31;101301.00;5052723;28;20021;-78
2022/09/07 08:55:15;;;;;;;25.40;6.32;;;;;;;24.16;49.28;101290.25;5052936;28;20112;-79
2022/09/07 08:57:47;;;;;;;12.82;5.28;;;;;;;24.24;49.61;101298.38;5052707;28;20036;-79
2022/09/07 09:00:16;;;;;;;9.45;4.45;;;;;;;24.33;49.69;101297.19;5052556;28;20425;-77
2022/09/07 09:02:42;;;;;;;12.00;5.43;;;;;;;24.20;49.76;101277.84;5052417;28;20021;-78
2022/09/07 09:05:21;;;;;;;6.55;3.90;;;;;;;24.25;49.25;101300.06;5052174;28;20078;-78
2022/09/07 09:08:06;;;;;;;6.85;4.30;;;;;;;24.23;48.60;101293.94;5052449;28;20029;-77
2022/09/07 09:10:32;;;;;;;10.93;4.50;;;;;;;24.12;48.45;101289.81;5052576;28;20025;-78
2022/09/07 09:12:57;;;;;;;10.85;4.53;;;;;;;24.13;49.08;101287.91;5052079;28;20520;-81
2022/09/07 09:15:51;;;;;;;11.85;4.10;;;;;;;24.14;48.82;101292.38;5052160;28;20028;-80
2022/09/07 09:18:54;;;;;;;14.15;4.80;;;;;;;24.02;49.15;101286.50;5051758;28;20024;-79
2022/09/07 09:21:20;;;;;;;12.73;4.15;;;;;;;23.95;48.40;101271.84;5043510;28;20037;-80
2022/09/07 09:23:50;;;;;;;6.75;4.13;;;;;;;24.04;47.87;101261.56;5052376;28;20510;-80
2022/09/07 09:26:22;;;;;;;20.60;4.32;;;;;;;24.33;47.71;101273.31;5052777;28;20024;-80
2022/09/07 09:28:50;;;;;;;5.55;3.78;;;;;;;24.31;46.69;101269.06;5052462;28;20024;-80
2022/09/07 09:31:22;;;;;;;18.45;4.28;;;;;;;24.33;46.81;101267.81;5052208;28;20558;-79
2022/09/07 09:34:06;;;;;;;11.05;4.10;;;;;;;;;;5055870;28;20029;-80
2022/09/07 09:36:34;;;;;;;8.73;4.13;;;;;;;24.38;46.37;101269.94;5052620;28;20111;-79
2022/09/07 09:39:00;;;;;;;11.77;3.90;;;;;;;24.52;46.27;101274.53;5052117;28;20028;-80
2022/09/07 09:41:35;;;;;;;28.17;17.92;;;;;;;24.58;46.11;101268.22;5052028;28;20021;-80
2022/09/07 09:44:02;;;;;;;8.90;4.13;;;;;;;24.43;46.16;101231.72;5052421;28;20016;-80
2022/09/07 09:46:31;;;;;;;18.60;5.05;;;;;;;24.79;46.63;101270.91;5051670;28;20025;-80
2022/09/07 09:49:12;;;;;;;8.30;3.92;;;;;;;24.84;47.02;101256.56;5052030;28;20016;-79
2022/09/07 09:51:43;;;;;;;12.98;4.72;;;;;;;24.89;47.03;101265.91;5051962;28;20052;-80
2022/09/07 09:54:27;;;;;;;9.05;4.18;;;;;;;25.02;47.12;101256.88;5052037;28;20047;-78
2022/09/07 09:56:52;;;;;;;20.13;5.10;;;;;;;24.98;46.19;101252.00;5052049;28;20147;-82
2022/09/07 09:59:22;;;;;;;20.38;4.97;;;;;;;24.98;45.39;101254.75;5053732;28;20106;-82
2022/09/07 10:01:49;;;;;;;18.05;4.20;;;;;;;24.96;45.87;101270.59;5053629;28;20101;-80
2022/09/07 10:04:22;;;;;;;13.88;4.18;;;;;;;25.11;45.28;101266.66;5053886;28;20021;-82
2022/09/07 10:07:08;;;;;;;22.85;3.88;;;;;;;25.25;45.31;101264.84;5049254;28;20017;-81
2022/09/07 10:09:39;;;;;;;9.27;4.00;;;;;;;25.23;45.26;101251.25;5044732;28;20171;-81
2022/09/07 10:12:06;;;;;;;16.13;3.92;;;;;;;25.39;45.53;101267.44;5052302;28;20025;-84
2022/09/07 10:14:43;;;;;;;21.40;5.22;;;;;;;25.43;45.69;101251.34;5051547;28;20044;-82
2022/09/07 10:17:27;;;;;;;6.43;4.00;;;;;;;25.50;45.71;101257.78;5052088;28;20548;-84
2022/09/07 10:20:17;;;;;;;7.35;4.15;;;;;;;25.37;45.76;101252.16;5051859;28;20029;-81
2022/09/07 10:22:45;;;;;;;12.85;4.07;;;;;;;25.34;45.84;101249.81;5048133;28;20040;-82
2022/09/07 10:25:32;;;;;;;13.27;5.30;;;;;;;25.51;45.71;101264.97;5051696;28;20032;-82
2022/09/07 10:28:01;;;;;;;16.48;4.22;;;;;;;25.56;45.53;101262.44;5052009;28;20032;-82
2022/09/07 10:30:31;;;;;;;14.95;5.20;;;;;;;25.55;45.61;101248.88;5052805;28;20117;-82
2022/09/07 10:33:29;;;;;;;9.43;4.15;;;;;;;25.73;45.50;101255.50;5056167;28;20028;-82
2022/09/07 10:36:10;;;;;;;9.02;4.30;;;;;;;25.79;44.93;101276.69;5032907;28;20041;-81
2022/09/07 10:38:43;;;;;;;8.20;4.32;;;;;;;25.83;45.27;101264.22;5055520;28;20693;-80
2022/09/07 10:41:10;;;;;;;13.75;4.50;;;;;;;25.74;44.63;101248.06;5055443;28;20116;-80
2022/09/07 10:43:44;;;;;;;17.70;4.85;;;;;;;25.89;44.36;101254.25;5055411;28;20104;-80
2022/09/07 10:46:51;;;;;;;5.88;4.40;;;;;;;25.92;44.18;101260.19;5055642;28;20029;-82
2022/09/07 10:49:26;;;;;;;15.48;5.82;;;;;;;25.54;44.94;101252.66;5039866;28;20052;-82
2022/09/07 10:52:00;;;;;;;15.27;4.38;;;;;;;25.42;45.08;101255.16;5055689;28;20032;-81
2022/09/07 10:54:31;;;;;;;13.05;4.28;;;;;;;25.54;45.45;101252.66;5055706;28;20074;-85
2022/09/07 10:57:03;;;;;;;16.07;3.80;;;;;;;25.30;46.13;101249.38;5055980;28;20466;-86
2022/09/07 10:59:30;;;;;;;17.23;4.68;;;;;;;25.56;45.49;101253.34;5056669;28;20692;-86
2022/09/07 11:02:17;;;;;;;13.85;4.82;;;;;;;25.59;44.16;101256.53;5057918;28;20033;-85
2022/09/07 11:05:01;;;;;;;26.25;5.55;;;;;;;25.51;44.92;101242.06;5056181;28;20024;-86
2022/09/07 11:07:49;;;;;;;19.75;5.43;;;;;;;25.63;45.20;101257.78;5056871;28;20495;-86
2022/09/07 11:10:23;;;;;;;7.63;3.97;;;;;;;25.73;44.73;101243.63;5056741;28;20083;-86
2022/09/07 11:12:52;;;;;;;14.70;4.88;;;;;;;25.79;44.72;101240.03;5057683;28;20402;-85
2022/09/07 11:15:26;;;;;;;8.32;4.55;;;;;;;25.94;43.72;101255.31;5059012;28;20083;-86
2022/09/07 11:17:58;;;;;;;10.45;4.00;;;;;;;26.15;43.08;101240.50;5061591;28;20017;-85
2022/09/07 11:20:29;;;;;;;7.57;4.07;;;;;;;26.07;43.39;101237.09;5058148;28;20021;-86
2022/09/07 11:23:13;;;;;;;16.15;4.60;;;;;;;26.05;43.25;101240.06;5056884;28;20048;-85
2022/09/07 11:25:57;;;;;;;7.32;4.07;;;;;;;25.97;43.26;101238.34;5057999;28;20025;-86
2022/09/07 11:28:33;;;;;;;8.20;4.93;;;;;;;25.91;44.08;101238.34;5057039;28;20075;-85
2022/09/07 11:31:05;;;;;;;24.27;5.53;;;;;;;25.97;44.57;101224.56;5056185;28;20495;-86
2022/09/07 11:33:38;;;;;;;;;;;;;;;26.04;44.58;101223.72;5056925;28;20107;-86
2022/09/07 11:36:12;;;;;;;8.73;5.15;;;;;;;26.05;44.36;101225.44;5056105;28;19909;-86